Time;durP1;ratioP1;P1;durP2;ratioP2;P2;SDS_P1;SDS_P2;PMS_P1;PMS_P2;Temp;Humidity;BMP_temperature;BMP_pressure;BME280_temperature;BME280_humidity;BME280_pressure;Samples;Min_cycle;Max_cycle;Signal;HPM_P1;HPM_P2
2021/06/30 00:01:06;;;;;;;8.73;3.28;;;15.80;99.90;;;;;;10429958;28;22940;-66
2021/06/30 00:06:13;;;;;;;7.88;2.83;;;15.80;99.90;;;;;;10430630;28;20068;-66
2021/06/30 00:11:22;;;;;;;5.30;2.80;;;15.80;99.90;;;;;;10429304;28;20052;-66
2021/06/30 00:16:32;;;;;;;4.00;2.38;;;15.70;99.90;;;;;;10431636;28;20049;-66
2021/06/30 00:21:39;;;;;;;7.25;2.75;;;15.70;99.90;;;;;;10430743;28;20097;-66
2021/06/30 00:26:46;;;;;;;6.95;2.63;;;15.70;99.90;;;;;;10431136;28;20037;-66
2021/06/30 00:31:52;;;;;;;9.98;2.90;;;15.60;99.90;;;;;;10431181;28;20121;-66
2021/06/30 00:36:59;;;;;;;3.00;2.50;;;15.50;99.90;;;;;;10430541;28;20060;-66
2021/06/30 00:42:06;;;;;;;4.35;2.80;;;15.60;99.90;;;;;;10427022;28;20041;-66
2021/06/30 00:47:13;;;;;;;11.45;2.85;;;15.60;99.90;;;;;;10429455;28;20083;-66
2021/06/30 00:52:19;;;;;;;;;;;15.50;99.90;;;;;;10430118;28;20045;-66
2021/06/30 00:57:27;;;;;;;9.52;2.22;;;15.50;99.90;;;;;;10428222;28;19944;-66
2021/06/30 01:02:34;;;;;;;3.72;2.47;;;15.50;99.90;;;;;;10428537;28;20045;-66
2021/06/30 01:07:40;;;;;;;11.30;2.58;;;15.40;99.90;;;;;;10428553;28;20048;-66
2021/06/30 01:12:47;;;;;;;9.63;2.33;;;15.40;99.90;;;;;;10429705;28;20051;-66
2021/06/30 01:17:53;;;;;;;9.68;3.28;;;15.40;99.90;;;;;;10427592;28;20044;-66
2021/06/30 01:23:08;;;;;;;9.23;3.13;;;15.30;99.90;;;;;;10427091;28;20045;-66
2021/06/30 01:28:16;;;;;;;10.45;3.40;;;15.20;99.90;;;;;;10379763;28;20047;-66
2021/06/30 01:33:23;;;;;;;6.07;3.03;;;15.20;99.90;;;;;;10426670;28;20518;-66
2021/06/30 01:38:30;;;;;;;11.88;3.92;;;15.10;99.90;;;;;;10427017;28;20052;-66
2021/06/30 01:43:37;;;;;;;5.38;2.72;;;15.10;99.90;;;;;;10429072;28;20049;-66
2021/06/30 01:48:47;;;;;;;11.63;3.80;;;15.10;99.90;;;;;;10429071;28;20045;-66
2021/06/30 01:53:56;;;;;;;5.65;2.80;;;15.10;99.90;;;;;;10428184;28;20060;-66
2021/06/30 01:59:15;;;;;;;6.07;2.30;;;15.10;99.90;;;;;;10425918;28;20041;-66
2021/06/30 02:04:21;;;;;;;6.85;2.55;;;15.10;99.90;;;;;;10378820;28;20064;-66
2021/06/30 02:09:28;;;;;;;8.70;2.20;;;15.10;99.90;;;;;;10427952;28;20036;-66
2021/06/30 02:14:34;;;;;;;2.85;2.60;;;15.10;99.90;;;;;;10425780;28;20041;-66
2021/06/30 02:19:41;;;;;;;9.18;2.40;;;15.20;99.90;;;;;;10423743;28;20059;-66
2021/06/30 02:24:48;;;;;;;8.73;2.90;;;15.20;99.90;;;;;;10427341;28;20045;-66
2021/06/30 02:29:56;;;;;;;8.45;2.58;;;15.20;99.90;;;;;;10427454;28;20052;-66
2021/06/30 02:35:08;;;;;;;10.32;3.10;;;15.20;99.90;;;;;;10426957;28;20045;-66
2021/06/30 02:40:16;;;;;;;13.15;4.18;;;15.20;99.90;;;;;;10378936;28;20040;-66
2021/06/30 02:45:23;;;;;;;12.20;5.03;;;15.30;99.90;;;;;;10425185;28;20060;-66
2021/06/30 02:50:30;;;;;;;12.95;4.65;;;15.30;99.90;;;;;;10439239;28;20045;-66
2021/06/30 02:55:37;;;;;;;15.07;4.85;;;15.30;99.90;;;;;;10425043;28;20056;-66
2021/06/30 03:00:43;;;;;;;9.32;5.22;;;15.30;99.90;;;;;;10422441;28;20064;-66
2021/06/30 03:05:50;;;;;;;14.00;4.30;;;15.30;99.90;;;;;;10424355;28;20041;-66
2021/06/30 03:10:56;;;;;;;9.48;4.22;;;15.40;99.90;;;;;;10424792;28;20060;-66
2021/06/30 03:16:03;;;;;;;9.63;3.58;;;15.50;99.90;;;;;;10424026;28;20471;-66
2021/06/30 03:21:10;;;;;;;6.07;2.83;;;15.50;99.90;;;;;;10422588;28;20056;-64
2021/06/30 03:26:16;;;;;;;7.50;3.15;;;15.30;99.90;;;;;;10427468;28;20697;-64
2021/06/30 03:31:23;;;;;;;6.38;3.45;;;15.30;99.90;;;;;;10432547;28;20049;-64
2021/06/30 03:36:30;;;;;;;8.10;2.70;;;15.20;99.90;;;;;;10434972;28;20049;-64
2021/06/30 03:41:36;;;;;;;6.63;2.33;;;15.20;99.90;;;;;;10430376;28;20041;-64
2021/06/30 03:46:43;;;;;;;5.50;2.20;;;15.20;99.90;;;;;;10430370;28;20064;-64
2021/06/30 03:51:50;;;;;;;3.97;2.13;;;15.10;99.90;;;;;;10430178;28;20404;-64
2021/06/30 03:56:56;;;;;;;3.83;2.13;;;15.10;99.90;;;;;;10430464;28;20049;-64
2021/06/30 04:02:03;;;;;;;7.25;2.38;;;15.20;99.90;;;;;;10433758;28;20045;-64
2021/06/30 04:07:11;;;;;;;7.65;3.10;;;15.20;99.90;;;;;;10430815;28;20456;-65
2021/06/30 04:12:17;;;;;;;5.43;2.42;;;15.20;99.90;;;;;;10430341;28;20149;-64
2021/06/30 04:17:24;;;;;;;4.50;2.13;;;15.20;99.90;;;;;;10433462;28;20045;-64
2021/06/30 04:22:30;;;;;;;7.00;2.47;;;15.20;99.90;;;;;;10429889;28;20108;-64
2021/06/30 04:27:37;;;;;;;5.95;2.58;;;15.30;99.90;;;;;;10430705;28;20049;-64
2021/06/30 04:32:44;;;;;;;13.68;2.70;;;15.40;99.90;;;;;;10431713;28;20041;-64
2021/06/30 04:37:50;;;;;;;8.43;2.80;;;15.50;99.90;;;;;;10428051;28;20044;-63
2021/06/30 04:42:57;;;;;;;7.03;3.15;;;15.50;99.90;;;;;;10425267;28;20056;-63
2021/06/30 04:48:04;;;;;;;8.18;2.63;;;15.50;99.90;;;;;;10432998;28;20045;-62
2021/06/30 04:53:10;;;;;;;;;;;15.50;99.90;;;;;;10430002;28;20049;-60
2021/06/30 04:58:18;;;;;;;8.10;4.05;;;15.70;99.90;;;;;;10433058;28;19932;-61
2021/06/30 05:03:27;;;;;;;5.45;3.78;;;15.70;99.90;;;;;;10428769;28;20056;-61
2021/06/30 05:08:34;;;;;;;8.60;3.67;;;15.70;99.90;;;;;;10425742;28;20053;-61
2021/06/30 05:13:40;;;;;;;12.60;3.20;;;15.90;99.90;;;;;;10428293;28;20056;-61
2021/06/30 05:18:47;;;;;;;10.57;3.75;;;15.80;99.90;;;;;;10428704;28;20048;-62
2021/06/30 05:23:53;;;;;;;4.05;2.50;;;15.80;99.90;;;;;;10431074;28;20068;-62
2021/06/30 05:29:00;;;;;;;7.13;2.35;;;15.90;99.90;;;;;;10421224;28;20049;-62
2021/06/30 05:34:06;;;;;;;4.30;2.63;;;16.00;99.90;;;;;;10424552;28;20063;-62
2021/06/30 05:39:18;;;;;;;6.75;2.40;;;16.10;99.90;;;;;;10425938;28;20053;-63
2021/06/30 05:44:24;;;;;;;6.20;2.67;;;16.10;99.90;;;;;;10429038;28;20057;-62
2021/06/30 05:49:31;;;;;;;8.77;2.95;;;15.90;99.90;;;;;;10427691;28;20053;-62
2021/06/30 05:54:38;;;;;;;8.65;1.88;;;16.00;99.90;;;;;;10425843;28;20045;-62
2021/06/30 05:59:44;;;;;;;7.03;1.55;;;16.10;99.90;;;;;;10425912;28;20045;-62
2021/06/30 06:04:51;;;;;;;7.07;2.30;;;16.30;99.90;;;;;;10420500;28;20052;-63
2021/06/30 06:09:59;;;;;;;3.53;2.28;;;16.40;99.90;;;;;;10423908;28;20396;-63
2021/06/30 06:15:10;;;;;;;11.27;3.65;;;16.50;99.90;;;;;;10423846;28;20045;-62
2021/06/30 06:20:16;;;;;;;4.97;1.77;;;16.40;99.90;;;;;;10375896;28;20570;-62
2021/06/30 06:25:23;;;;;;;2.47;1.33;;;16.40;99.90;;;;;;10427261;28;20041;-64
2021/06/30 06:30:30;;;;;;;6.18;1.50;;;16.30;99.90;;;;;;10426260;28;20138;-65
2021/06/30 06:35:37;;;;;;;5.10;1.30;;;16.20;99.90;;;;;;10422428;28;20066;-65
2021/06/30 06:40:44;;;;;;;7.05;1.50;;;16.50;99.90;;;;;;10424890;28;20041;-65
2021/06/30 06:45:50;;;;;;;;;;;16.40;99.90;;;;;;10423991;28;20045;-64
2021/06/30 06:50:57;;;;;;;4.55;1.75;;;16.80;99.90;;;;;;10425669;28;19924;-65
2021/06/30 06:56:08;;;;;;;5.05;0.80;;;16.90;99.90;;;;;;10425653;28;20044;-65
2021/06/30 07:01:15;;;;;;;1.77;0.90;;;16.90;99.90;;;;;;10426144;28;20053;-65
2021/06/30 07:06:21;;;;;;;2.28;0.80;;;17.00;99.90;;;;;;10433264;28;20067;-65
2021/06/30 07:11:28;;;;;;;;;;;17.10;99.90;;;;;;10433989;28;20050;-64
2021/06/30 07:16:35;;;;;;;3.00;0.90;;;17.20;99.90;;;;;;10426947;28;19921;-65
2021/06/30 07:21:41;;;;;;;2.35;0.60;;;17.40;99.90;;;;;;10430373;28;20779;-65
2021/06/30 07:26:48;;;;;;;1.48;0.77;;;17.50;99.90;;;;;;10432814;28;20036;-64
2021/06/30 07:31:56;;;;;;;1.58;0.52;;;17.40;99.90;;;;;;10429443;28;20044;-65
2021/06/30 07:36:58;;;;;;;2.55;1.02;;;17.20;99.90;;;;;;10433100;28;20128;-65
2021/06/30 07:42:05;;;;;;;2.35;0.68;;;17.50;99.90;;;;;;10428462;28;20060;-65
2021/06/30 07:47:12;;;;;;;2.10;0.50;;;17.50;99.90;;;;;;10430520;28;20053;-65
2021/06/30 07:52:14;;;;;;;1.23;0.40;;;17.60;99.90;;;;;;10430543;28;20057;-65
2021/06/30 07:57:15;;;;;;;0.95;0.50;;;17.90;99.90;;;;;;10431002;28;20522;-65
2021/06/30 08:02:17;;;;;;;2.05;0.40;;;17.80;99.90;;;;;;10432324;28;20053;-64
2021/06/30 08:07:21;;;;;;;2.45;0.60;;;18.10;99.90;;;;;;10433345;28;20049;-66
2021/06/30 08:12:23;;;;;;;3.53;0.47;;;18.10;99.90;;;;;;10426382;28;20115;-65
2021/06/30 08:17:24;;;;;;;0.50;0.40;;;17.90;99.90;;;;;;10430381;28;20060;-66
2021/06/30 08:22:26;;;;;;;2.65;0.60;;;17.90;99.90;;;;;;10433577;28;24702;-64
2021/06/30 08:27:28;;;;;;;2.05;0.40;;;18.20;99.90;;;;;;10429719;28;20079;-64
2021/06/30 08:32:30;;;;;;;1.23;0.40;;;18.20;99.90;;;;;;10432454;28;20049;-64
2021/06/30 08:37:38;;;;;;;2.55;0.40;;;18.30;99.90;;;;;;10430888;28;20036;-64
2021/06/30 08:42:43;;;;;;;2.60;0.40;;;18.30;99.90;;;;;;10429210;28;20118;-65
2021/06/30 08:47:45;;;;;;;1.48;0.40;;;18.40;99.90;;;;;;10428319;28;20111;-64
2021/06/30 08:52:48;;;;;;;1.00;0.35;;;18.80;99.90;;;;;;10431091;28;20069;-64
2021/06/30 08:58:08;;;;;;;0.50;0.40;;;18.60;99.90;;;;;;10425694;28;20047;-64
2021/06/30 09:03:18;;;;;;;3.30;0.60;;;18.60;99.90;;;;;;10422734;28;20065;-64
2021/06/30 09:08:21;;;;;;;0.98;0.57;;;18.60;99.90;;;;;;10425743;28;20052;-64
2021/06/30 09:13:24;;;;;;;1.05;0.50;;;18.70;99.90;;;;;;10428170;28;20491;-64
2021/06/30 09:18:31;;;;;;;3.15;0.60;;;19.10;99.90;;;;;;10430407;28;20059;-65
2021/06/30 09:23:33;;;;;;;0.90;0.50;;;19.10;99.90;;;;;;10427706;28;20044;-64
2021/06/30 09:28:43;;;;;;;0.60;0.52;;;19.10;99.90;;;;;;10425467;28;20095;-64
2021/06/30 09:33:51;;;;;;;3.63;1.25;;;18.90;99.90;;;;;;10379872;28;20052;-64
2021/06/30 09:38:53;;;;;;;1.83;0.80;;;19.10;99.90;;;;;;10426668;28;20103;-64
2021/06/30 09:44:06;;;;;;;1.30;0.75;;;19.20;99.90;;;;;;10424545;28;20076;-64
2021/06/30 09:49:19;;;;;;;4.88;1.20;;;19.00;99.90;;;;;;10426376;28;20052;-64
2021/06/30 09:54:21;;;;;;;1.73;0.93;;;18.80;99.90;;;;;;10425078;28;20061;-64
2021/06/30 09:59:25;;;;;;;3.70;1.70;;;18.60;99.90;;;;;;10423731;28;20711;-64
2021/06/30 10:04:32;;;;;;;1.77;0.50;;;18.70;99.90;;;;;;10423786;28;20122;-64
2021/06/30 10:09:34;;;;;;;1.85;0.55;;;18.80;99.90;;;;;;10426697;28;20048;-65
2021/06/30 10:14:38;;;;;;;2.35;0.55;;;19.20;99.90;;;;;;10425515;28;20041;-66
2021/06/30 10:19:42;;;;;;;3.30;0.50;;;19.80;99.90;;;;;;10426673;28;20099;-64
2021/06/30 10:24:55;;;;;;;0.40;0.30;;;19.90;99.90;;;;;;10428872;28;20052;-65
2021/06/30 10:30:00;;;;;;;0.63;0.32;;;20.10;99.90;;;;;;10440371;28;20060;-63
2021/06/30 10:35:04;;;;;;;2.80;0.30;;;19.80;99.90;;;;;;10429419;28;20053;-63
2021/06/30 10:40:14;;;;;;;0.82;0.30;;;20.10;99.90;;;;;;10424515;28;20046;-63
2021/06/30 10:45:21;;;;;;;0.50;0.28;;;21.00;99.90;;;;;;10430909;28;20045;-63
2021/06/30 10:50:42;;;;;;;0.88;0.20;;;20.90;99.90;;;;;;10433593;28;20092;-63
2021/06/30 10:55:51;;;;;;;2.28;0.30;;;20.40;99.90;;;;;;10427264;28;20106;-64
2021/06/30 11:01:05;;;;;;;0.70;0.30;;;20.10;99.90;;;;;;10428414;28;20679;-63
2021/06/30 11:06:13;;;;;;;3.25;0.82;;;20.10;99.90;;;;;;10416891;28;20533;-64
2021/06/30 11:11:35;;;;;;;3.10;0.30;;;20.20;99.90;;;;;;10426704;28;20049;-65
2021/06/30 11:16:37;;;;;;;0.30;0.20;;;20.00;99.90;;;;;;10419678;28;20095;-64
2021/06/30 11:21:51;;;;;;;2.15;0.22;;;20.30;99.90;;;;;;10422216;28;20050;-64
2021/06/30 11:26:54;;;;;;;0.20;0.20;;;20.30;99.90;;;;;;10426836;28;20045;-64
2021/06/30 11:31:56;;;;;;;0.75;0.30;;;20.50;99.90;;;;;;10431647;28;20044;-64
2021/06/30 11:36:59;;;;;;;0.20;0.20;;;20.00;99.90;;;;;;10428468;28;20093;-65
2021/06/30 11:42:07;;;;;;;0.40;0.30;;;20.10;99.90;;;;;;10425089;28;20071;-64
2021/06/30 11:47:09;;;;;;;0.55;0.30;;;20.60;99.90;;;;;;10423578;28;20144;-64
2021/06/30 11:52:13;;;;;;;0.32;0.20;;;20.60;99.90;;;;;;10430380;28;20073;-63
2021/06/30 11:57:15;;;;;;;1.42;0.30;;;21.00;98.70;;;;;;10431022;28;20049;-64
2021/06/30 12:02:17;;;;;;;1.95;0.30;;;21.30;97.30;;;;;;10431886;28;20069;-64
2021/06/30 12:07:19;;;;;;;2.10;0.40;;;21.10;97.10;;;;;;10432167;28;20076;-64
2021/06/30 12:12:21;;;;;;;0.60;0.40;;;21.90;95.70;;;;;;10433792;28;20102;-64
2021/06/30 12:17:22;;;;;;;0.30;0.20;;;21.50;94.10;;;;;;10434824;28;20470;-65
2021/06/30 12:22:36;;;;;;;0.30;0.22;;;22.00;93.30;;;;;;10432149;28;20049;-65
2021/06/30 12:27:42;;;;;;;0.20;0.20;;;21.80;92.90;;;;;;10434018;28;20077;-64
2021/06/30 12:32:48;;;;;;;;;;;21.70;90.80;;;;;;10433641;28;20134;-64
2021/06/30 12:37:57;;;;;;;0.28;0.28;;;21.70;92.00;;;;;;10431002;28;19932;-64
2021/06/30 12:43:21;;;;;;;0.22;0.20;;;21.70;92.30;;;;;;10384588;28;20132;-64
2021/06/30 12:48:28;;;;;;;0.40;0.20;;;21.70;92.30;;;;;;10419559;28;20569;-66
2021/06/30 12:53:36;;;;;;;0.30;0.20;;;21.60;92.20;;;;;;10425255;28;20045;-64
2021/06/30 12:58:46;;;;;;;2.35;0.30;;;21.50;92.10;;;;;;10433484;28;20045;-64
2021/06/30 13:03:59;;;;;;;0.30;0.20;;;21.40;92.70;;;;;;10427186;28;20486;-64
2021/06/30 13:09:05;;;;;;;2.35;0.20;;;21.40;92.40;;;;;;10429031;28;20052;-64
2021/06/30 13:14:19;;;;;;;;;;;20.90;93.60;;;;;;10429121;28;20134;-64
2021/06/30 13:19:24;;;;;;;0.73;0.45;;;20.70;94.00;;;;;;10387635;28;19970;-64
2021/06/30 13:24:35;;;;;;;0.30;0.28;;;20.70;94.90;;;;;;10430755;28;20702;-64
2021/06/30 13:35:28;;;;;;;0.40;0.25;;;21.30;94.50;;;;;;10424952;28;20080;-64
2021/06/30 13:40:34;;;;;;;0.98;0.70;;;21.70;93.50;;;;;;10351247;28;20057;-67
2021/06/30 13:45:47;;;;;;;0.95;0.60;;;22.10;92.80;;;;;;10430079;28;20044;-65
2021/06/30 13:50:58;;;;;;;1.25;0.30;;;21.70;93.70;;;;;;10378288;28;20069;-65
2021/06/30 13:56:02;;;;;;;2.17;0.30;;;22.00;93.80;;;;;;10425018;28;20099;-65
2021/06/30 14:01:05;;;;;;;0.30;0.20;;;21.70;92.90;;;;;;10443066;28;20622;-65
2021/06/30 14:06:07;;;;;;;1.38;0.40;;;21.30;93.60;;;;;;10421151;28;20041;-63
2021/06/30 14:11:10;;;;;;;1.48;0.28;;;21.10;93.10;;;;;;10423669;28;20049;-65
2021/06/30 14:16:12;;;;;;;0.50;0.20;;;21.20;93.50;;;;;;10426552;28;20045;-63
2021/06/30 14:21:13;;;;;;;0.35;0.30;;;21.40;93.70;;;;;;10424711;28;20056;-65
2021/06/30 14:26:15;;;;;;;0.63;0.30;;;21.10;92.60;;;;;;10426477;28;20130;-68
2021/06/30 14:31:17;;;;;;;1.75;0.20;;;21.30;94.10;;;;;;10424608;28;20045;-64
2021/06/30 14:36:20;;;;;;;2.03;0.30;;;21.10;92.80;;;;;;10427285;28;20076;-65
2021/06/30 14:41:23;;;;;;;2.78;0.50;;;21.80;93.30;;;;;;10423458;28;20115;-65
2021/06/30 14:46:24;;;;;;;0.88;0.30;;;21.60;92.70;;;;;;10426160;28;20114;-67
2021/06/30 14:51:26;;;;;;;2.45;0.20;;;21.90;91.80;;;;;;10425617;28;20385;-67
2021/06/30 14:56:28;;;;;;;0.65;0.20;;;21.60;92.20;;;;;;10422079;28;20110;-65
2021/06/30 15:01:30;;;;;;;0.75;0.20;;;21.80;92.20;;;;;;10424454;28;20053;-64
2021/06/30 15:06:32;;;;;;;0.28;0.20;;;22.50;91.20;;;;;;10426242;28;20125;-65
2021/06/30 15:11:35;;;;;;;0.82;0.25;;;22.50;90.50;;;;;;10422890;28;20049;-65
2021/06/30 15:16:36;;;;;;;5.05;0.40;;;22.80;89.70;;;;;;10425929;28;20436;-64
2021/06/30 15:21:44;;;;;;;0.50;0.30;;;22.80;90.20;;;;;;10419708;28;20060;-67
2021/06/30 15:26:47;;;;;;;0.77;0.30;;;22.40;91.70;;;;;;10428087;28;20103;-66
2021/06/30 15:31:52;;;;;;;1.77;0.50;;;22.70;91.60;;;;;;10434367;28;20423;-66
2021/06/30 15:36:54;;;;;;;0.35;0.30;;;23.00;91.10;;;;;;10433235;28;20041;-67
2021/06/30 15:41:55;;;;;;;2.28;0.40;;;23.40;88.60;;;;;;10429163;28;20065;-66
2021/06/30 15:46:57;;;;;;;1.40;0.30;;;23.40;88.50;;;;;;10433230;28;20065;-64
2021/06/30 15:51:59;;;;;;;0.68;0.20;;;22.90;89.30;;;;;;10433339;28;20048;-65
2021/06/30 15:57:01;;;;;;;0.40;0.30;;;23.10;88.30;;;;;;10430881;28;20087;-66
2021/06/30 16:02:03;;;;;;;0.60;0.60;;;23.10;89.20;;;;;;10430681;28;20076;-66
2021/06/30 16:07:05;;;;;;;0.88;0.30;;;22.80;90.20;;;;;;10426241;28;20102;-67
2021/06/30 16:12:12;;;;;;;1.38;0.35;;;21.80;90.90;;;;;;10432368;28;20076;-66
2021/06/30 16:17:13;;;;;;;0.98;0.55;;;21.80;91.40;;;;;;10430267;28;20150;-66
2021/06/30 16:22:17;;;;;;;0.45;0.30;;;21.70;91.60;;;;;;10431466;28;20053;-65
2021/06/30 16:27:19;;;;;;;0.75;0.30;;;21.10;92.60;;;;;;10429442;28;20110;-66
2021/06/30 16:32:21;;;;;;;1.00;0.60;;;20.80;93.60;;;;;;10433104;28;20110;-67
2021/06/30 16:37:23;;;;;;;1.50;0.40;;;20.40;94.80;;;;;;10427480;28;20056;-66
2021/06/30 16:42:25;;;;;;;1.33;0.40;;;20.20;95.70;;;;;;10428951;28;20383;-66
2021/06/30 16:47:26;;;;;;;0.40;0.40;;;20.00;96.90;;;;;;10434919;28;20041;-67
2021/06/30 16:52:28;;;;;;;1.25;0.40;;;19.70;99.50;;;;;;10428127;28;20080;-68
2021/06/30 16:57:31;;;;;;;1.40;0.40;;;19.40;99.90;;;;;;10431490;28;20045;-65
2021/06/30 17:02:32;;;;;;;2.78;0.30;;;19.20;99.90;;;;;;10428211;28;20469;-66
2021/06/30 17:07:35;;;;;;;2.25;0.30;;;18.90;99.90;;;;;;10433401;28;20052;-66
2021/06/30 17:12:38;;;;;;;0.40;0.30;;;18.60;99.90;;;;;;10423191;28;20052;-65
2021/06/30 17:17:40;;;;;;;12.18;0.60;;;18.50;99.90;;;;;;10425164;28;20049;-65
2021/06/30 17:22:42;;;;;;;0.77;0.30;;;18.40;99.90;;;;;;10429682;28;20072;-65
2021/06/30 17:27:44;;;;;;;1.95;0.38;;;18.40;99.90;;;;;;10425721;28;20083;-65
2021/06/30 17:32:52;;;;;;;0.80;0.60;;;18.20;99.90;;;;;;10431444;28;20122;-65
2021/06/30 17:37:54;;;;;;;0.60;0.20;;;18.20;99.90;;;;;;10425918;28;20056;-65
2021/06/30 17:42:55;;;;;;;0.52;0.30;;;17.90;99.90;;;;;;10423392;28;20049;-65
2021/06/30 17:48:03;;;;;;;1.55;0.20;;;18.00;99.90;;;;;;10429040;28;20438;-65
2021/06/30 17:53:04;;;;;;;1.65;0.20;;;17.80;99.90;;;;;;10428731;28;20044;-64
2021/06/30 17:58:06;;;;;;;0.82;0.45;;;17.60;99.90;;;;;;10425680;28;20107;-65
2021/06/30 18:03:08;;;;;;;0.65;0.30;;;17.50;99.90;;;;;;10425184;28;20126;-63
2021/06/30 18:08:10;;;;;;;2.70;0.50;;;17.40;99.90;;;;;;10428377;28;20059;-64
2021/06/30 18:13:12;;;;;;;0.98;0.30;;;17.30;99.90;;;;;;10426052;28;20068;-64
2021/06/30 18:18:14;;;;;;;1.05;0.40;;;17.20;99.90;;;;;;10423726;28;20053;-64
2021/06/30 18:23:16;;;;;;;4.65;0.50;;;17.30;99.90;;;;;;10425163;28;20084;-64
2021/06/30 18:28:17;;;;;;;2.70;0.47;;;17.30;99.90;;;;;;10420457;28;20049;-64
2021/06/30 18:33:19;;;;;;;3.63;0.45;;;17.30;99.90;;;;;;10425870;28;20102;-65
2021/06/30 18:38:21;;;;;;;4.22;0.70;;;17.40;99.90;;;;;;10417736;28;20096;-64
2021/06/30 18:43:23;;;;;;;5.95;0.55;;;17.40;99.90;;;;;;10417996;28;20102;-64
2021/06/30 18:48:25;;;;;;;2.40;0.50;;;17.30;99.90;;;;;;10421833;28;20078;-64
2021/06/30 18:53:30;;;;;;;0.90;0.40;;;17.30;99.90;;;;;;10420659;28;20460;-64
2021/06/30 18:58:33;;;;;;;0.95;0.52;;;17.80;99.90;;;;;;10420069;28;20109;-65
2021/06/30 19:03:35;;;;;;;2.75;0.52;;;17.20;99.90;;;;;;10416073;28;20049;-63
2021/06/30 19:08:36;;;;;;;2.08;0.60;;;17.10;99.90;;;;;;10420948;28;20068;-62
2021/06/30 19:13:38;;;;;;;2.85;1.00;;;16.70;99.90;;;;;;10420899;28;20140;-64
2021/06/30 19:18:40;;;;;;;4.47;1.65;;;16.40;99.90;;;;;;10422446;28;20593;-64
2021/06/30 19:23:42;;;;;;;4.07;1.38;;;16.20;99.90;;;;;;10424182;28;20491;-65
2021/06/30 19:28:44;;;;;;;4.22;1.92;;;16.10;99.90;;;;;;10423258;28;20413;-65
2021/06/30 19:33:46;;;;;;;1.92;1.08;;;15.90;99.90;;;;;;10427482;28;20111;-65
2021/06/30 19:38:48;;;;;;;2.67;1.58;;;15.80;99.90;;;;;;10423435;28;20088;-65
2021/06/30 19:43:49;;;;;;;3.05;2.17;;;15.70;99.90;;;;;;10425104;28;20095;-64
2021/06/30 19:48:51;;;;;;;2.88;1.80;;;15.70;99.90;;;;;;10428385;28;20098;-65
2021/06/30 19:53:53;;;;;;;3.70;2.42;;;15.60;99.90;;;;;;10424547;28;20145;-64
2021/06/30 19:58:55;;;;;;;4.60;2.00;;;15.70;99.90;;;;;;10423708;28;20045;-64
2021/06/30 20:03:56;;;;;;;4.50;1.92;;;15.60;99.90;;;;;;10437324;28;20073;-66
2021/06/30 20:08:58;;;;;;;6.45;1.83;;;15.50;99.90;;;;;;10420049;28;20970;-65
2021/06/30 20:14:01;;;;;;;2.83;1.85;;;15.40;99.90;;;;;;10421647;28;20057;-65
2021/06/30 20:19:03;;;;;;;4.63;2.22;;;15.40;99.90;;;;;;10430559;28;20111;-66
2021/06/30 20:24:05;;;;;;;3.67;2.45;;;15.40;99.90;;;;;;10430588;28;20045;-66
2021/06/30 20:29:07;;;;;;;7.38;2.88;;;15.40;99.90;;;;;;10433057;28;20075;-66
2021/06/30 20:34:08;;;;;;;5.00;2.22;;;15.40;99.90;;;;;;10431852;28;20053;-68
2021/06/30 20:39:11;;;;;;;7.45;2.67;;;15.40;99.90;;;;;;10430762;28;20061;-67
2021/06/30 20:44:14;;;;;;;4.95;2.13;;;15.40;99.90;;;;;;10431968;28;20100;-66
2021/06/30 20:49:15;;;;;;;6.95;2.28;;;15.40;99.90;;;;;;10429417;28;20554;-68
2021/06/30 20:54:17;;;;;;;7.85;2.92;;;15.30;99.90;;;;;;10430080;28;20080;-68
2021/06/30 20:59:19;;;;;;;4.85;2.80;;;15.30;99.90;;;;;;10431749;28;20064;-68
2021/06/30 21:04:21;;;;;;;3.65;1.95;;;15.30;99.90;;;;;;10428340;28;20048;-68
2021/06/30 21:09:22;;;;;;;4.13;2.05;;;15.30;99.90;;;;;;10428138;28;20106;-69
2021/06/30 21:14:24;;;;;;;6.60;2.45;;;15.20;99.90;;;;;;10427976;28;20096;-70
2021/06/30 21:19:25;;;;;;;8.40;1.95;;;15.20;99.90;;;;;;10429033;28;20068;-70
2021/06/30 21:24:27;;;;;;;6.80;3.10;;;15.20;99.90;;;;;;10425441;28;20072;-69
2021/06/30 21:29:29;;;;;;;9.40;3.72;;;15.20;99.90;;;;;;10425675;28;20053;-69
2021/06/30 21:34:35;;;;;;;10.52;3.65;;;15.20;99.90;;;;;;10444412;28;20041;-70
2021/06/30 21:39:37;;;;;;;6.50;3.87;;;15.40;99.90;;;;;;10425587;28;20134;-69
2021/06/30 21:44:38;;;;;;;7.32;4.05;;;15.30;99.90;;;;;;10429480;28;20076;-71
2021/06/30 21:49:40;;;;;;;13.77;5.28;;;15.30;99.90;;;;;;10425038;28;20057;-71
2021/06/30 21:54:42;;;;;;;12.50;4.80;;;15.50;99.90;;;;;;10425656;28;20099;-70
2021/06/30 21:59:44;;;;;;;11.20;5.32;;;15.40;99.90;;;;;;10427239;28;20446;-71
2021/06/30 22:04:45;;;;;;;15.18;4.95;;;15.40;99.90;;;;;;10427490;28;20378;-71
2021/06/30 22:09:47;;;;;;;9.02;4.60;;;15.30;99.90;;;;;;10423490;28;20127;-71
2021/06/30 22:14:49;;;;;;;9.13;3.70;;;15.30;99.90;;;;;;10428450;28;20056;-71
2021/06/30 22:19:50;;;;;;;8.63;3.28;;;15.30;99.90;;;;;;10432514;28;20112;-71
2021/06/30 22:24:52;;;;;;;4.80;2.70;;;15.20;99.90;;;;;;10421714;28;20045;-72
2021/06/30 22:29:54;;;;;;;5.00;2.92;;;15.20;99.90;;;;;;10423786;28;20080;-71
2021/06/30 22:34:55;;;;;;;6.00;3.00;;;15.10;99.90;;;;;;10427707;28;20178;-70
2021/06/30 22:40:01;;;;;;;7.57;3.28;;;15.10;99.90;;;;;;10425996;28;20045;-70
2021/06/30 22:45:05;;;;;;;8.68;4.88;;;15.00;99.90;;;;;;10423960;28;20048;-69
2021/06/30 22:50:09;;;;;;;12.20;5.40;;;15.00;99.90;;;;;;10420644;28;20033;-69
2021/06/30 22:55:11;;;;;;;11.82;5.70;;;15.10;99.90;;;;;;10419483;28;20068;-69
2021/06/30 23:00:16;;;;;;;19.00;8.38;;;15.20;99.90;;;;;;10440164;28;20098;-69
2021/06/30 23:05:19;;;;;;;22.58;7.82;;;15.30;99.90;;;;;;10426405;28;20061;-69
2021/06/30 23:10:21;;;;;;;25.23;7.95;;;15.30;99.90;;;;;;10427660;28;20044;-68
2021/06/30 23:15:22;;;;;;;20.95;7.75;;;15.20;99.90;;;;;;10428369;28;20384;-69
2021/06/30 23:20:24;;;;;;;23.10;8.75;;;15.20;99.90;;;;;;10426589;28;20053;-69
2021/06/30 23:25:26;;;;;;;24.08;8.10;;;15.20;99.90;;;;;;10422479;28;20049;-69
2021/06/30 23:30:27;;;;;;;19.65;7.95;;;15.20;99.90;;;;;;10425996;28;20122;-69
2021/06/30 23:35:29;;;;;;;21.25;8.55;;;15.30;99.90;;;;;;10422756;28;20052;-69
2021/06/30 23:40:31;;;;;;;13.50;6.97;;;15.30;99.90;;;;;;10424493;28;20056;-69
2021/06/30 23:45:32;;;;;;;13.45;6.93;;;15.30;99.90;;;;;;10422838;28;20045;-69
2021/06/30 23:50:34;;;;;;;16.13;7.50;;;15.30;99.90;;;;;;10430025;28;20053;-69
2021/06/30 23:55:36;;;;;;;16.08;7.13;;;15.30;99.90;;;;;;10432210;28;20107;-69
